sensor_id;sensor_type;location;lat;lon;timestamp;P1;durP1;ratioP1;P2;durP2;ratioP2
28848;SDS011;15981;43.292;-2.888;2022-12-18T00:01:31;3.15;;;1.90;;
28848;SDS011;15981;43.292;-2.888;2022-12-18T00:03:57;2.53;;;2.13;;
28848;SDS011;15981;43.292;-2.888;2022-12-18T00:06:23;2.30;;;2.08;;
28848;SDS011;15981;43.292;-2.888;2022-12-18T00:08:50;3.00;;;2.10;;
28848;SDS011;15981;43.292;-2.888;2022-12-18T00:11:17;2.33;;;2.13;;
28848;SDS011;15981;43.292;-2.888;2022-12-18T00:13:43;2.42;;;2.00;;
28848;SDS011;15981;43.292;-2.888;2022-12-18T00:16:10;2.10;;;1.90;;
28848;SDS011;15981;43.292;-2.888;2022-12-18T00:18:36;2.92;;;1.88;;
28848;SDS011;15981;43.292;-2.888;2022-12-18T00:21:03;2.55;;;2.08;;
28848;SDS011;15981;43.292;-2.888;2022-12-18T00:23:29;2.30;;;2.10;;
28848;SDS011;15981;43.292;-2.888;2022-12-18T00:25:58;3.88;;;2.03;;
28848;SDS011;15981;43.292;-2.888;2022-12-18T00:28:24;2.80;;;2.17;;
28848;SDS011;15981;43.292;-2.888;2022-12-18T00:30:50;2.42;;;1.80;;
28848;SDS011;15981;43.292;-2.888;2022-12-18T00:33:17;2.08;;;1.88;;
28848;SDS011;15981;43.292;-2.888;2022-12-18T00:35:43;2.65;;;1.77;;
28848;SDS011;15981;43.292;-2.888;2022-12-18T00:38:08;2.33;;;1.98;;
28848;SDS011;15981;43.292;-2.888;2022-12-18T00:40:34;2.22;;;1.80;;
28848;SDS011;15981;43.292;-2.888;2022-12-18T00:43:00;2.42;;;1.85;;
28848;SDS011;15981;43.292;-2.888;2022-12-18T00:45:26;3.00;;;2.08;;
28848;SDS011;15981;43.292;-2.888;2022-12-18T00:47:52;2.20;;;2.00;;
28848;SDS011;15981;43.292;-2.888;2022-12-18T00:50:18;3.65;;;1.95;;
28848;SDS011;15981;43.292;-2.888;2022-12-18T00:52:44;2.45;;;1.73;;
28848;SDS011;15981;43.292;-2.888;2022-12-18T00:55:10;2.70;;;2.13;;
28848;SDS011;15981;43.292;-2.888;2022-12-18T00:57:36;2.40;;;1.95;;
28848;SDS011;15981;43.292;-2.888;2022-12-18T01:00:03;4.05;;;2.40;;
28848;SDS011;15981;43.292;-2.888;2022-12-18T01:02:28;3.88;;;2.20;;
28848;SDS011;15981;43.292;-2.888;2022-12-18T01:04:54;3.17;;;2.20;;
28848;SDS011;15981;43.292;-2.888;2022-12-18T01:07:20;2.72;;;2.40;;
28848;SDS011;15981;43.292;-2.888;2022-12-18T01:09:46;2.53;;;1.88;;
28848;SDS011;15981;43.292;-2.888;2022-12-18T01:12:11;3.42;;;2.40;;
28848;SDS011;15981;43.292;-2.888;2022-12-18T01:14:37;2.30;;;2.05;;
28848;SDS011;15981;43.292;-2.888;2022-12-18T01:17:03;2.30;;;2.08;;
28848;SDS011;15981;43.292;-2.888;2022-12-18T01:19:29;3.80;;;2.17;;
28848;SDS011;15981;43.292;-2.888;2022-12-18T01:21:55;3.65;;;2.00;;
28848;SDS011;15981;43.292;-2.888;2022-12-18T01:24:21;3.08;;;2.20;;
28848;SDS011;15981;43.292;-2.888;2022-12-18T01:26:47;2.60;;;1.92;;
28848;SDS011;15981;43.292;-2.888;2022-12-18T01:29:13;2.22;;;1.85;;
28848;SDS011;15981;43.292;-2.888;2022-12-18T01:31:38;2.85;;;2.10;;
28848;SDS011;15981;43.292;-2.888;2022-12-18T01:34:04;3.17;;;1.90;;
28848;SDS011;15981;43.292;-2.888;2022-12-18T01:36:31;2.63;;;1.90;;
28848;SDS011;15981;43.292;-2.888;2022-12-18T01:38:59;3.05;;;2.05;;
28848;SDS011;15981;43.292;-2.888;2022-12-18T01:41:27;3.78;;;2.20;;
28848;SDS011;15981;43.292;-2.888;2022-12-18T01:46:57;2.45;;;2.08;;
28848;SDS011;15981;43.292;-2.888;2022-12-18T01:49:23;2.08;;;1.88;;
28848;SDS011;15981;43.292;-2.888;2022-12-18T01:51:48;3.25;;;2.10;;
28848;SDS011;15981;43.292;-2.888;2022-12-18T01:54:14;2.20;;;2.00;;
28848;SDS011;15981;43.292;-2.888;2022-12-18T01:56:40;2.00;;;1.80;;
28848;SDS011;15981;43.292;-2.888;2022-12-18T01:59:06;2.10;;;1.90;;
28848;SDS011;15981;43.292;-2.888;2022-12-18T02:01:33;2.10;;;1.90;;
28848;SDS011;15981;43.292;-2.888;2022-12-18T02:06:43;3.47;;;2.28;;
28848;SDS011;15981;43.292;-2.888;2022-12-18T02:09:13;1.92;;;1.80;;
28848;SDS011;15981;43.292;-2.888;2022-12-18T02:11:49;2.42;;;1.80;;
28848;SDS011;15981;43.292;-2.888;2022-12-18T02:15:22;2.67;;;1.70;;
28848;SDS011;15981;43.292;-2.888;2022-12-18T02:17:16;2.17;;;1.98;;
28848;SDS011;15981;43.292;-2.888;2022-12-18T02:22:29;2.53;;;1.90;;
28848;SDS011;15981;43.292;-2.888;2022-12-18T02:27:50;1.90;;;1.70;;
28848;SDS011;15981;43.292;-2.888;2022-12-18T02:30:17;2.25;;;1.80;;
28848;SDS011;15981;43.292;-2.888;2022-12-18T02:32:45;2.13;;;1.77;;
28848;SDS011;15981;43.292;-2.888;2022-12-18T02:35:13;3.22;;;1.95;;
28848;SDS011;15981;43.292;-2.888;2022-12-18T02:37:40;2.00;;;1.80;;
28848;SDS011;15981;43.292;-2.888;2022-12-18T02:40:08;2.97;;;1.80;;
28848;SDS011;15981;43.292;-2.888;2022-12-18T02:42:34;2.63;;;1.90;;
28848;SDS011;15981;43.292;-2.888;2022-12-18T02:45:00;2.72;;;1.80;;
28848;SDS011;15981;43.292;-2.888;2022-12-18T02:47:29;2.00;;;1.80;;
28848;SDS011;15981;43.292;-2.888;2022-12-18T02:52:34;2.80;;;1.80;;
28848;SDS011;15981;43.292;-2.888;2022-12-18T02:57:51;2.78;;;1.73;;
28848;SDS011;15981;43.292;-2.888;2022-12-18T03:00:18;2.85;;;1.88;;
28848;SDS011;15981;43.292;-2.888;2022-12-18T03:02:50;1.83;;;1.73;;
28848;SDS011;15981;43.292;-2.888;2022-12-18T03:05:20;2.72;;;1.83;;
28848;SDS011;15981;43.292;-2.888;2022-12-18T03:07:51;2.03;;;1.83;;
28848;SDS011;15981;43.292;-2.888;2022-12-18T03:10:19;6.50;;;1.95;;
28848;SDS011;15981;43.292;-2.888;2022-12-18T03:12:52;2.00;;;1.80;;
28848;SDS011;15981;43.292;-2.888;2022-12-18T03:17:46;2.00;;;1.80;;
28848;SDS011;15981;43.292;-2.888;2022-12-18T03:20:15;3.30;;;1.92;;
28848;SDS011;15981;43.292;-2.888;2022-12-18T03:22:43;2.75;;;1.73;;
28848;SDS011;15981;43.292;-2.888;2022-12-18T03:25:11;1.80;;;1.70;;
28848;SDS011;15981;43.292;-2.888;2022-12-18T03:27:38;1.80;;;1.70;;
28848;SDS011;15981;43.292;-2.888;2022-12-18T03:30:07;3.25;;;2.20;;
28848;SDS011;15981;43.292;-2.888;2022-12-18T03:32:39;2.75;;;1.88;;
28848;SDS011;15981;43.292;-2.888;2022-12-18T03:35:07;2.33;;;1.63;;
28848;SDS011;15981;43.292;-2.888;2022-12-18T03:37:33;2.25;;;1.83;;
28848;SDS011;15981;43.292;-2.888;2022-12-18T03:39:59;2.20;;;1.80;;
28848;SDS011;15981;43.292;-2.888;2022-12-18T03:47:17;1.90;;;1.70;;
28848;SDS011;15981;43.292;-2.888;2022-12-18T03:52:54;2.72;;;2.00;;
28848;SDS011;15981;43.292;-2.888;2022-12-18T03:55:17;2.00;;;1.80;;
28848;SDS011;15981;43.292;-2.888;2022-12-18T03:57:43;1.75;;;1.63;;
28848;SDS011;15981;43.292;-2.888;2022-12-18T04:00:13;2.53;;;1.90;;
28848;SDS011;15981;43.292;-2.888;2022-12-18T04:02:41;2.10;;;1.90;;
28848;SDS011;15981;43.292;-2.888;2022-12-18T04:05:08;2.30;;;1.88;;
28848;SDS011;15981;43.292;-2.888;2022-12-18T04:07:35;2.33;;;1.67;;
28848;SDS011;15981;43.292;-2.888;2022-12-18T04:10:02;3.35;;;1.80;;
28848;SDS011;15981;43.292;-2.888;2022-12-18T04:12:29;2.22;;;1.60;;
28848;SDS011;15981;43.292;-2.888;2022-12-18T04:14:54;3.47;;;2.08;;
28848;SDS011;15981;43.292;-2.888;2022-12-18T04:17:20;2.83;;;1.70;;
28848;SDS011;15981;43.292;-2.888;2022-12-18T04:19:46;1.83;;;1.73;;
28848;SDS011;15981;43.292;-2.888;2022-12-18T04:22:12;2.25;;;1.80;;
28848;SDS011;15981;43.292;-2.888;2022-12-18T04:24:38;1.92;;;1.80;;
28848;SDS011;15981;43.292;-2.888;2022-12-18T04:27:03;2.00;;;1.60;;
28848;SDS011;15981;43.292;-2.888;2022-12-18T04:29:29;1.95;;;1.80;;
28848;SDS011;15981;43.292;-2.888;2022-12-18T04:31:55;2.10;;;1.83;;
28848;SDS011;15981;43.292;-2.888;2022-12-18T04:34:21;2.42;;;1.58;;
28848;SDS011;15981;43.292;-2.888;2022-12-18T04:36:46;2.00;;;1.80;;
28848;SDS011;15981;43.292;-2.888;2022-12-18T04:39:12;1.88;;;1.77;;
28848;SDS011;15981;43.292;-2.888;2022-12-18T04:41:38;2.28;;;1.90;;
28848;SDS011;15981;43.292;-2.888;2022-12-18T04:44:04;2.30;;;1.90;;
28848;SDS011;15981;43.292;-2.888;2022-12-18T04:46:29;1.70;;;1.60;;
28848;SDS011;15981;43.292;-2.888;2022-12-18T04:48:55;1.83;;;1.70;;
28848;SDS011;15981;43.292;-2.888;2022-12-18T04:51:21;2.35;;;1.90;;
28848;SDS011;15981;43.292;-2.888;2022-12-18T04:53:47;2.55;;;1.90;;
28848;SDS011;15981;43.292;-2.888;2022-12-18T04:56:13;1.88;;;1.70;;
28848;SDS011;15981;43.292;-2.888;2022-12-18T04:58:40;1.80;;;1.70;;
28848;SDS011;15981;43.292;-2.888;2022-12-18T05:01:07;1.92;;;1.73;;
28848;SDS011;15981;43.292;-2.888;2022-12-18T05:03:33;1.70;;;1.60;;
28848;SDS011;15981;43.292;-2.888;2022-12-18T05:05:59;2.67;;;1.70;;
28848;SDS011;15981;43.292;-2.888;2022-12-18T05:08:25;1.73;;;1.63;;
28848;SDS011;15981;43.292;-2.888;2022-12-18T05:11:00;2.25;;;1.90;;
28848;SDS011;15981;43.292;-2.888;2022-12-18T05:13:26;2.40;;;1.63;;
28848;SDS011;15981;43.292;-2.888;2022-12-18T05:15:52;1.90;;;1.80;;
28848;SDS011;15981;43.292;-2.888;2022-12-18T05:18:18;1.55;;;1.45;;
28848;SDS011;15981;43.292;-2.888;2022-12-18T05:20:44;2.65;;;1.60;;
28848;SDS011;15981;43.292;-2.888;2022-12-18T05:23:10;2.28;;;1.75;;
28848;SDS011;15981;43.292;-2.888;2022-12-18T05:25:35;1.98;;;1.60;;
28848;SDS011;15981;43.292;-2.888;2022-12-18T05:28:01;2.55;;;1.75;;
28848;SDS011;15981;43.292;-2.888;2022-12-18T05:30:27;1.95;;;1.85;;
28848;SDS011;15981;43.292;-2.888;2022-12-18T05:32:53;2.10;;;1.90;;
28848;SDS011;15981;43.292;-2.888;2022-12-18T05:35:19;1.80;;;1.70;;
28848;SDS011;15981;43.292;-2.888;2022-12-18T05:37:44;2.38;;;1.63;;
28848;SDS011;15981;43.292;-2.888;2022-12-18T05:40:10;3.42;;;1.73;;
28848;SDS011;15981;43.292;-2.888;2022-12-18T05:42:36;2.70;;;1.90;;
28848;SDS011;15981;43.292;-2.888;2022-12-18T05:45:02;2.65;;;1.80;;
28848;SDS011;15981;43.292;-2.888;2022-12-18T05:47:28;1.98;;;1.83;;
28848;SDS011;15981;43.292;-2.888;2022-12-18T05:49:54;2.10;;;1.90;;
28848;SDS011;15981;43.292;-2.888;2022-12-18T05:52:20;2.00;;;1.60;;
28848;SDS011;15981;43.292;-2.888;2022-12-18T05:54:46;1.70;;;1.60;;
28848;SDS011;15981;43.292;-2.888;2022-12-18T05:57:11;2.17;;;1.88;;
28848;SDS011;15981;43.292;-2.888;2022-12-18T05:59:37;1.90;;;1.70;;
28848;SDS011;15981;43.292;-2.888;2022-12-18T06:02:03;2.13;;;1.80;;
28848;SDS011;15981;43.292;-2.888;2022-12-18T06:04:29;2.05;;;1.85;;
28848;SDS011;15981;43.292;-2.888;2022-12-18T06:06:54;2.53;;;1.92;;
28848;SDS011;15981;43.292;-2.888;2022-12-18T06:09:20;1.92;;;1.70;;
28848;SDS011;15981;43.292;-2.888;2022-12-18T06:11:46;2.08;;;1.88;;
28848;SDS011;15981;43.292;-2.888;2022-12-18T06:14:11;2.45;;;1.70;;
28848;SDS011;15981;43.292;-2.888;2022-12-18T06:16:37;2.25;;;1.90;;
28848;SDS011;15981;43.292;-2.888;2022-12-18T06:19:03;2.10;;;1.80;;
28848;SDS011;15981;43.292;-2.888;2022-12-18T06:21:30;1.95;;;1.77;;
28848;SDS011;15981;43.292;-2.888;2022-12-18T06:23:56;1.65;;;1.55;;
28848;SDS011;15981;43.292;-2.888;2022-12-18T06:26:22;2.67;;;1.90;;
28848;SDS011;15981;43.292;-2.888;2022-12-18T06:28:47;2.10;;;1.90;;
28848;SDS011;15981;43.292;-2.888;2022-12-18T06:31:13;1.60;;;1.50;;
28848;SDS011;15981;43.292;-2.888;2022-12-18T06:33:39;2.58;;;1.73;;
28848;SDS011;15981;43.292;-2.888;2022-12-18T06:36:06;1.92;;;1.67;;
28848;SDS011;15981;43.292;-2.888;2022-12-18T06:38:33;2.40;;;1.65;;
28848;SDS011;15981;43.292;-2.888;2022-12-18T06:40:59;2.03;;;1.80;;
28848;SDS011;15981;43.292;-2.888;2022-12-18T06:43:25;2.03;;;1.63;;
28848;SDS011;15981;43.292;-2.888;2022-12-18T06:45:50;2.28;;;1.90;;
28848;SDS011;15981;43.292;-2.888;2022-12-18T06:48:18;3.15;;;1.70;;
28848;SDS011;15981;43.292;-2.888;2022-12-18T06:50:45;1.83;;;1.67;;
28848;SDS011;15981;43.292;-2.888;2022-12-18T06:53:10;2.45;;;1.70;;
28848;SDS011;15981;43.292;-2.888;2022-12-18T06:55:37;1.80;;;1.60;;
28848;SDS011;15981;43.292;-2.888;2022-12-18T06:58:02;2.33;;;1.80;;
28848;SDS011;15981;43.292;-2.888;2022-12-18T07:00:28;2.10;;;1.65;;
28848;SDS011;15981;43.292;-2.888;2022-12-18T07:02:54;3.15;;;1.90;;
28848;SDS011;15981;43.292;-2.888;2022-12-18T07:05:19;2.22;;;1.77;;
28848;SDS011;15981;43.292;-2.888;2022-12-18T07:07:45;4.38;;;1.73;;
28848;SDS011;15981;43.292;-2.888;2022-12-18T07:10:11;2.63;;;1.70;;
28848;SDS011;15981;43.292;-2.888;2022-12-18T07:12:37;2.00;;;1.65;;
28848;SDS011;15981;43.292;-2.888;2022-12-18T07:15:02;2.30;;;1.70;;
28848;SDS011;15981;43.292;-2.888;2022-12-18T07:17:28;2.22;;;1.60;;
28848;SDS011;15981;43.292;-2.888;2022-12-18T07:19:55;2.85;;;1.70;;
28848;SDS011;15981;43.292;-2.888;2022-12-18T07:22:20;2.78;;;1.70;;
28848;SDS011;15981;43.292;-2.888;2022-12-18T07:24:46;1.70;;;1.60;;
28848;SDS011;15981;43.292;-2.888;2022-12-18T07:27:12;3.40;;;1.98;;
28848;SDS011;15981;43.292;-2.888;2022-12-18T07:29:39;2.20;;;1.92;;
28848;SDS011;15981;43.292;-2.888;2022-12-18T07:32:04;2.67;;;2.03;;
28848;SDS011;15981;43.292;-2.888;2022-12-18T07:34:30;2.03;;;1.83;;
28848;SDS011;15981;43.292;-2.888;2022-12-18T07:36:56;2.15;;;1.70;;
28848;SDS011;15981;43.292;-2.888;2022-12-18T07:39:22;2.78;;;1.77;;
28848;SDS011;15981;43.292;-2.888;2022-12-18T07:41:48;2.03;;;1.70;;
28848;SDS011;15981;43.292;-2.888;2022-12-18T07:44:33;1.73;;;1.63;;
28848;SDS011;15981;43.292;-2.888;2022-12-18T07:46:59;2.08;;;1.80;;
28848;SDS011;15981;43.292;-2.888;2022-12-18T07:49:25;1.80;;;1.70;;
28848;SDS011;15981;43.292;-2.888;2022-12-18T07:51:50;2.10;;;1.90;;
28848;SDS011;15981;43.292;-2.888;2022-12-18T07:54:16;2.38;;;1.75;;
28848;SDS011;15981;43.292;-2.888;2022-12-18T07:56:42;1.98;;;1.80;;
28848;SDS011;15981;43.292;-2.888;2022-12-18T07:59:08;2.53;;;1.60;;
28848;SDS011;15981;43.292;-2.888;2022-12-18T08:01:33;3.28;;;1.63;;
28848;SDS011;15981;43.292;-2.888;2022-12-18T08:03:59;2.42;;;1.83;;
28848;SDS011;15981;43.292;-2.888;2022-12-18T08:06:25;2.15;;;1.60;;
28848;SDS011;15981;43.292;-2.888;2022-12-18T08:08:52;1.83;;;1.73;;
28848;SDS011;15981;43.292;-2.888;2022-12-18T08:11:18;2.38;;;1.60;;
28848;SDS011;15981;43.292;-2.888;2022-12-18T08:13:43;2.30;;;1.70;;
28848;SDS011;15981;43.292;-2.888;2022-12-18T08:16:09;1.60;;;1.50;;
28848;SDS011;15981;43.292;-2.888;2022-12-18T08:18:36;1.98;;;1.75;;
28848;SDS011;15981;43.292;-2.888;2022-12-18T08:21:15;2.25;;;1.80;;
28848;SDS011;15981;43.292;-2.888;2022-12-18T08:23:41;2.78;;;1.85;;
28848;SDS011;15981;43.292;-2.888;2022-12-18T08:26:07;2.40;;;1.70;;
28848;SDS011;15981;43.292;-2.888;2022-12-18T08:28:33;2.97;;;2.03;;
28848;SDS011;15981;43.292;-2.888;2022-12-18T08:30:59;1.98;;;1.70;;
28848;SDS011;15981;43.292;-2.888;2022-12-18T08:33:25;4.78;;;2.00;;
28848;SDS011;15981;43.292;-2.888;2022-12-18T08:35:51;3.08;;;1.95;;
28848;SDS011;15981;43.292;-2.888;2022-12-18T08:38:17;3.28;;;2.00;;
28848;SDS011;15981;43.292;-2.888;2022-12-18T08:40:43;3.17;;;2.03;;
28848;SDS011;15981;43.292;-2.888;2022-12-18T08:43:09;2.65;;;1.88;;
28848;SDS011;15981;43.292;-2.888;2022-12-18T08:45:53;2.90;;;2.05;;
28848;SDS011;15981;43.292;-2.888;2022-12-18T08:48:19;3.58;;;2.60;;
28848;SDS011;15981;43.292;-2.888;2022-12-18T08:50:53;3.08;;;2.25;;
28848;SDS011;15981;43.292;-2.888;2022-12-18T08:53:19;4.60;;;2.30;;
28848;SDS011;15981;43.292;-2.888;2022-12-18T08:55:44;3.33;;;2.05;;
28848;SDS011;15981;43.292;-2.888;2022-12-18T08:58:10;4.07;;;2.47;;
28848;SDS011;15981;43.292;-2.888;2022-12-18T09:00:36;3.00;;;2.20;;
28848;SDS011;15981;43.292;-2.888;2022-12-18T09:03:01;3.45;;;2.33;;
28848;SDS011;15981;43.292;-2.888;2022-12-18T09:05:27;2.45;;;1.90;;
28848;SDS011;15981;43.292;-2.888;2022-12-18T09:07:53;5.57;;;3.20;;
28848;SDS011;15981;43.292;-2.888;2022-12-18T09:10:18;7.00;;;5.05;;
28848;SDS011;15981;43.292;-2.888;2022-12-18T09:12:44;8.70;;;6.10;;
28848;SDS011;15981;43.292;-2.888;2022-12-18T09:15:10;7.32;;;5.20;;
28848;SDS011;15981;43.292;-2.888;2022-12-18T09:17:36;5.47;;;4.30;;
28848;SDS011;15981;43.292;-2.888;2022-12-18T09:20:02;4.90;;;3.78;;
28848;SDS011;15981;43.292;-2.888;2022-12-18T09:22:28;4.28;;;3.45;;
28848;SDS011;15981;43.292;-2.888;2022-12-18T09:24:54;7.68;;;3.22;;
28848;SDS011;15981;43.292;-2.888;2022-12-18T09:27:20;4.05;;;3.25;;
28848;SDS011;15981;43.292;-2.888;2022-12-18T09:29:45;3.58;;;2.75;;
28848;SDS011;15981;43.292;-2.888;2022-12-18T09:32:11;3.78;;;2.70;;
28848;SDS011;15981;43.292;-2.888;2022-12-18T09:34:37;7.78;;;3.00;;
28848;SDS011;15981;43.292;-2.888;2022-12-18T09:37:03;2.95;;;2.60;;
28848;SDS011;15981;43.292;-2.888;2022-12-18T09:39:29;2.85;;;2.55;;
28848;SDS011;15981;43.292;-2.888;2022-12-18T09:41:55;4.65;;;2.60;;
28848;SDS011;15981;43.292;-2.888;2022-12-18T09:44:24;4.00;;;2.67;;
28848;SDS011;15981;43.292;-2.888;2022-12-18T09:46:52;2.90;;;2.50;;
28848;SDS011;15981;43.292;-2.888;2022-12-18T09:49:19;2.95;;;2.63;;
28848;SDS011;15981;43.292;-2.888;2022-12-18T09:51:50;3.35;;;2.67;;
28848;SDS011;15981;43.292;-2.888;2022-12-18T09:54:18;2.75;;;2.53;;
28848;SDS011;15981;43.292;-2.888;2022-12-18T09:56:45;3.80;;;2.40;;
28848;SDS011;15981;43.292;-2.888;2022-12-18T09:59:17;4.43;;;2.58;;
28848;SDS011;15981;43.292;-2.888;2022-12-18T10:01:43;2.80;;;2.50;;
28848;SDS011;15981;43.292;-2.888;2022-12-18T10:04:09;3.35;;;2.45;;
28848;SDS011;15981;43.292;-2.888;2022-12-18T10:06:52;2.72;;;2.30;;
28848;SDS011;15981;43.292;-2.888;2022-12-18T10:17:00;3.08;;;2.40;;
28848;SDS011;15981;43.292;-2.888;2022-12-18T10:26:47;4.50;;;3.03;;
28848;SDS011;15981;43.292;-2.888;2022-12-18T10:29:14;3.53;;;3.05;;
28848;SDS011;15981;43.292;-2.888;2022-12-18T10:31:40;5.15;;;4.22;;
28848;SDS011;15981;43.292;-2.888;2022-12-18T10:34:12;15.57;;;12.00;;
28848;SDS011;15981;43.292;-2.888;2022-12-18T10:36:54;23.50;;;20.90;;
28848;SDS011;15981;43.292;-2.888;2022-12-18T10:39:21;28.73;;;25.55;;
28848;SDS011;15981;43.292;-2.888;2022-12-18T10:42:08;22.73;;;19.88;;
28848;SDS011;15981;43.292;-2.888;2022-12-18T10:44:34;16.42;;;14.70;;
28848;SDS011;15981;43.292;-2.888;2022-12-18T10:47:05;15.35;;;12.75;;
28848;SDS011;15981;43.292;-2.888;2022-12-18T10:49:32;11.15;;;8.63;;
28848;SDS011;15981;43.292;-2.888;2022-12-18T10:52:13;11.60;;;6.55;;
28848;SDS011;15981;43.292;-2.888;2022-12-18T10:54:39;10.60;;;7.60;;
28848;SDS011;15981;43.292;-2.888;2022-12-18T10:57:15;8.55;;;6.07;;
28848;SDS011;15981;43.292;-2.888;2022-12-18T10:59:54;6.60;;;5.45;;
28848;SDS011;15981;43.292;-2.888;2022-12-18T11:02:38;5.50;;;5.00;;
28848;SDS011;15981;43.292;-2.888;2022-12-18T11:05:27;6.63;;;4.90;;
28848;SDS011;15981;43.292;-2.888;2022-12-18T11:07:50;6.57;;;4.38;;
28848;SDS011;15981;43.292;-2.888;2022-12-18T11:10:16;5.88;;;4.35;;
28848;SDS011;15981;43.292;-2.888;2022-12-18T11:12:43;4.50;;;3.35;;
28848;SDS011;15981;43.292;-2.888;2022-12-18T11:15:16;5.88;;;3.45;;
28848;SDS011;15981;43.292;-2.888;2022-12-18T11:17:42;4.20;;;2.90;;
28848;SDS011;15981;43.292;-2.888;2022-12-18T11:20:30;4.35;;;2.40;;
28848;SDS011;15981;43.292;-2.888;2022-12-18T11:23:01;4.32;;;3.03;;
28848;SDS011;15981;43.292;-2.888;2022-12-18T11:25:28;4.65;;;2.75;;
28848;SDS011;15981;43.292;-2.888;2022-12-18T11:27:55;4.30;;;2.63;;
28848;SDS011;15981;43.292;-2.888;2022-12-18T11:30:22;4.72;;;2.60;;
28848;SDS011;15981;43.292;-2.888;2022-12-18T11:33:03;5.00;;;2.63;;
28848;SDS011;15981;43.292;-2.888;2022-12-18T11:35:37;3.00;;;2.20;;
28848;SDS011;15981;43.292;-2.888;2022-12-18T11:38:12;4.22;;;2.33;;
28848;SDS011;15981;43.292;-2.888;2022-12-18T11:40:43;3.83;;;2.42;;
28848;SDS011;15981;43.292;-2.888;2022-12-18T11:43:13;4.22;;;2.40;;
28848;SDS011;15981;43.292;-2.888;2022-12-18T11:45:46;3.45;;;2.50;;
28848;SDS011;15981;43.292;-2.888;2022-12-18T11:51:20;3.35;;;2.67;;
28848;SDS011;15981;43.292;-2.888;2022-12-18T11:53:51;3.30;;;2.40;;
28848;SDS011;15981;43.292;-2.888;2022-12-18T11:58:55;69.88;;;22.83;;
28848;SDS011;15981;43.292;-2.888;2022-12-18T12:06:33;130.43;;;39.97;;
28848;SDS011;15981;43.292;-2.888;2022-12-18T12:21:41;25.25;;;9.90;;
28848;SDS011;15981;43.292;-2.888;2022-12-18T12:26:49;26.50;;;8.70;;
28848;SDS011;15981;43.292;-2.888;2022-12-18T12:29:29;27.25;;;8.95;;
28848;SDS011;15981;43.292;-2.888;2022-12-18T12:37:20;15.80;;;6.15;;
28848;SDS011;15981;43.292;-2.888;2022-12-18T12:39:48;14.93;;;5.93;;
28848;SDS011;15981;43.292;-2.888;2022-12-18T12:42:35;16.75;;;5.50;;
28848;SDS011;15981;43.292;-2.888;2022-12-18T12:45:20;12.70;;;4.90;;
28848;SDS011;15981;43.292;-2.888;2022-12-18T12:47:48;6.30;;;4.18;;
28848;SDS011;15981;43.292;-2.888;2022-12-18T12:50:15;10.38;;;4.80;;
28848;SDS011;15981;43.292;-2.888;2022-12-18T12:52:51;7.05;;;3.85;;
28848;SDS011;15981;43.292;-2.888;2022-12-18T12:55:22;10.80;;;4.47;;
28848;SDS011;15981;43.292;-2.888;2022-12-18T13:00:20;8.80;;;4.10;;
28848;SDS011;15981;43.292;-2.888;2022-12-18T13:05:26;8.73;;;3.40;;
28848;SDS011;15981;43.292;-2.888;2022-12-18T13:10:31;8.35;;;3.28;;
28848;SDS011;15981;43.292;-2.888;2022-12-18T13:15:42;5.47;;;3.30;;
28848;SDS011;15981;43.292;-2.888;2022-12-18T13:25:52;5.45;;;2.42;;
28848;SDS011;15981;43.292;-2.888;2022-12-18T13:28:22;6.75;;;3.67;;
28848;SDS011;15981;43.292;-2.888;2022-12-18T13:30:54;7.03;;;4.15;;
28848;SDS011;15981;43.292;-2.888;2022-12-18T13:45:49;7.05;;;3.67;;
28848;SDS011;15981;43.292;-2.888;2022-12-18T13:48:16;7.25;;;3.80;;
28848;SDS011;15981;43.292;-2.888;2022-12-18T13:50:42;7.65;;;3.97;;
28848;SDS011;15981;43.292;-2.888;2022-12-18T13:53:14;6.30;;;3.40;;
28848;SDS011;15981;43.292;-2.888;2022-12-18T13:55:43;6.97;;;3.72;;
28848;SDS011;15981;43.292;-2.888;2022-12-18T13:58:11;7.43;;;3.70;;
28848;SDS011;15981;43.292;-2.888;2022-12-18T14:00:41;4.10;;;2.63;;
28848;SDS011;15981;43.292;-2.888;2022-12-18T14:03:17;5.55;;;3.00;;
28848;SDS011;15981;43.292;-2.888;2022-12-18T14:05:44;6.65;;;2.90;;
28848;SDS011;15981;43.292;-2.888;2022-12-18T14:08:12;5.95;;;2.80;;
28848;SDS011;15981;43.292;-2.888;2022-12-18T14:10:42;3.58;;;2.60;;
28848;SDS011;15981;43.292;-2.888;2022-12-18T14:13:08;5.70;;;2.50;;
28848;SDS011;15981;43.292;-2.888;2022-12-18T14:15:44;4.38;;;2.22;;
28848;SDS011;15981;43.292;-2.888;2022-12-18T14:20:39;5.50;;;2.50;;
28848;SDS011;15981;43.292;-2.888;2022-12-18T14:23:23;5.13;;;2.50;;
28848;SDS011;15981;43.292;-2.888;2022-12-18T14:25:50;4.43;;;2.22;;
28848;SDS011;15981;43.292;-2.888;2022-12-18T14:28:15;3.55;;;2.15;;
28848;SDS011;15981;43.292;-2.888;2022-12-18T14:30:42;4.38;;;2.50;;
28848;SDS011;15981;43.292;-2.888;2022-12-18T14:33:09;4.45;;;2.33;;
28848;SDS011;15981;43.292;-2.888;2022-12-18T14:35:36;3.65;;;2.47;;
28848;SDS011;15981;43.292;-2.888;2022-12-18T14:38:22;6.20;;;2.38;;
28848;SDS011;15981;43.292;-2.888;2022-12-18T14:40:52;3.55;;;2.15;;
28848;SDS011;15981;43.292;-2.888;2022-12-18T14:43:18;3.50;;;2.13;;
28848;SDS011;15981;43.292;-2.888;2022-12-18T14:45:44;2.67;;;1.85;;
28848;SDS011;15981;43.292;-2.888;2022-12-18T14:50:37;2.97;;;1.90;;
28848;SDS011;15981;43.292;-2.888;2022-12-18T14:53:03;3.50;;;2.22;;
28848;SDS011;15981;43.292;-2.888;2022-12-18T14:55:29;3.97;;;2.40;;
28848;SDS011;15981;43.292;-2.888;2022-12-18T14:57:56;4.82;;;2.42;;
28848;SDS011;15981;43.292;-2.888;2022-12-18T15:00:23;3.47;;;2.50;;
28848;SDS011;15981;43.292;-2.888;2022-12-18T15:02:51;3.30;;;2.20;;
28848;SDS011;15981;43.292;-2.888;2022-12-18T15:05:19;2.45;;;2.25;;
28848;SDS011;15981;43.292;-2.888;2022-12-18T15:07:46;2.58;;;2.00;;
28848;SDS011;15981;43.292;-2.888;2022-12-18T15:12:42;2.47;;;2.28;;
28848;SDS011;15981;43.292;-2.888;2022-12-18T15:23:21;3.05;;;2.28;;
28848;SDS011;15981;43.292;-2.888;2022-12-18T15:26:10;3.63;;;2.40;;
28848;SDS011;15981;43.292;-2.888;2022-12-18T15:28:38;2.97;;;2.30;;
28848;SDS011;15981;43.292;-2.888;2022-12-18T15:31:05;3.03;;;2.20;;
28848;SDS011;15981;43.292;-2.888;2022-12-18T15:33:35;4.18;;;2.60;;
28848;SDS011;15981;43.292;-2.888;2022-12-18T15:36:03;3.30;;;2.50;;
28848;SDS011;15981;43.292;-2.888;2022-12-18T15:38:29;2.95;;;2.40;;
28848;SDS011;15981;43.292;-2.888;2022-12-18T15:40:55;3.40;;;2.30;;
28848;SDS011;15981;43.292;-2.888;2022-12-18T15:43:22;3.13;;;2.28;;
28848;SDS011;15981;43.292;-2.888;2022-12-18T15:46:09;2.70;;;2.03;;
28848;SDS011;15981;43.292;-2.888;2022-12-18T15:48:40;3.60;;;2.38;;
28848;SDS011;15981;43.292;-2.888;2022-12-18T15:51:25;2.63;;;2.38;;
28848;SDS011;15981;43.292;-2.888;2022-12-18T15:53:52;2.90;;;2.13;;
28848;SDS011;15981;43.292;-2.888;2022-12-18T15:56:19;2.80;;;2.17;;
28848;SDS011;15981;43.292;-2.888;2022-12-18T15:59:10;2.90;;;2.20;;
28848;SDS011;15981;43.292;-2.888;2022-12-18T16:01:36;2.30;;;2.10;;
28848;SDS011;15981;43.292;-2.888;2022-12-18T16:04:02;3.75;;;2.00;;
28848;SDS011;15981;43.292;-2.888;2022-12-18T16:06:28;2.40;;;1.88;;
28848;SDS011;15981;43.292;-2.888;2022-12-18T16:08:53;2.22;;;2.00;;
28848;SDS011;15981;43.292;-2.888;2022-12-18T16:11:26;2.78;;;2.15;;
28848;SDS011;15981;43.292;-2.888;2022-12-18T16:14:20;3.75;;;2.50;;
28848;SDS011;15981;43.292;-2.888;2022-12-18T16:16:47;3.55;;;2.25;;
28848;SDS011;15981;43.292;-2.888;2022-12-18T16:19:13;2.42;;;2.08;;
28848;SDS011;15981;43.292;-2.888;2022-12-18T16:21:39;2.53;;;2.22;;
28848;SDS011;15981;43.292;-2.888;2022-12-18T16:24:05;2.45;;;1.98;;
28848;SDS011;15981;43.292;-2.888;2022-12-18T16:26:34;2.17;;;1.92;;
28848;SDS011;15981;43.292;-2.888;2022-12-18T16:29:00;2.83;;;2.28;;
28848;SDS011;15981;43.292;-2.888;2022-12-18T16:31:26;3.65;;;2.17;;
28848;SDS011;15981;43.292;-2.888;2022-12-18T16:34:09;3.67;;;2.20;;
28848;SDS011;15981;43.292;-2.888;2022-12-18T16:36:34;5.88;;;2.38;;
28848;SDS011;15981;43.292;-2.888;2022-12-18T16:39:00;3.20;;;2.30;;